createdAt,value
2019-01-16T00:03:38.434Z,6.60
2019-01-16T00:08:58.410Z,6.50
2019-01-16T00:14:07.941Z,6.50
2019-01-16T00:19:23.734Z,6.60
2019-01-16T00:24:34.426Z,6.60
2019-01-16T00:29:43.930Z,6.60
2019-01-16T00:34:59.332Z,6.60
2019-01-16T00:40:11.897Z,6.60
2019-01-16T00:45:22.695Z,6.60
2019-01-16T00:51:31.003Z,6.60
2019-01-16T00:57:42.167Z,6.60
2019-01-16T01:02:52.791Z,6.70
2019-01-16T01:08:13.551Z,6.70
2019-01-16T01:15:32.273Z,6.80
2019-01-16T01:22:48.263Z,6.90
2019-01-16T01:28:05.112Z,7.00
2019-01-16T01:34:18.603Z,7.00
2019-01-16T01:39:29.974Z,7.00
2019-01-16T01:45:38.471Z,7.10
2019-01-16T01:50:53.734Z,7.10
2019-01-16T01:56:06.627Z,7.10
2019-01-16T02:01:33.995Z,7.10
2019-01-16T02:06:45.759Z,7.10
2019-01-16T02:13:58.644Z,7.10
2019-01-16T02:19:09.272Z,7.20
2019-01-16T02:25:21.286Z,7.20
2019-01-16T02:32:35.942Z,7.20
2019-01-16T02:37:45.808Z,7.20
2019-01-16T02:42:59.283Z,7.20
2019-01-16T02:48:18.818Z,7.20
2019-01-16T02:53:29.741Z,7.20
2019-01-16T02:59:13.221Z,7.20
2019-01-16T03:04:38.895Z,7.20
2019-01-16T03:10:05.429Z,7.20
2019-01-16T03:15:17.135Z,7.20
2019-01-16T03:20:32.872Z,7.20
2019-01-16T03:25:43.256Z,7.20
2019-01-16T03:30:58.808Z,7.20
2019-01-16T03:36:09.850Z,7.20
2019-01-16T03:41:22.261Z,7.20
2019-01-16T03:47:06.692Z,7.10
2019-01-16T03:52:17.357Z,7.10
2019-01-16T03:57:59.362Z,7.00
2019-01-16T04:03:10.329Z,7.00
2019-01-16T04:08:21.167Z,6.90
2019-01-16T04:13:31.659Z,6.90
2019-01-16T04:18:42.618Z,6.80
2019-01-16T04:23:55.146Z,6.80
2019-01-16T04:29:05.828Z,6.80
2019-01-16T04:34:16.727Z,6.80
2019-01-16T04:39:27.766Z,6.80
2019-01-16T04:44:39.256Z,6.80
2019-01-16T04:49:49.994Z,6.80
2019-01-16T04:55:02.607Z,6.80
2019-01-16T05:00:17.645Z,6.80
2019-01-16T05:05:28.282Z,6.80
2019-01-16T05:10:38.784Z,6.80
2019-01-16T05:15:51.272Z,6.70
2019-01-16T05:21:10.693Z,6.80
2019-01-16T05:28:25.387Z,6.80
2019-01-16T05:33:37.828Z,6.80
2019-01-16T05:38:48.452Z,6.80
2019-01-16T05:44:31.292Z,6.80
2019-01-16T05:50:44.676Z,6.70
2019-01-16T05:56:03.895Z,6.70
2019-01-16T06:01:22.425Z,6.70
2019-01-16T06:06:32.959Z,6.70
2019-01-16T06:11:43.675Z,6.70
2019-01-16T06:16:54.484Z,6.70
2019-01-16T06:22:04.019Z,6.70
2019-01-16T06:27:15.815Z,6.70
2019-01-16T06:32:29.166Z,6.70
2019-01-16T06:37:42.924Z,6.70
2019-01-16T06:43:14.030Z,6.70
2019-01-16T06:48:38.828Z,6.60
2019-01-16T06:53:49.460Z,6.60
2019-01-16T06:59:01.326Z,6.60
2019-01-16T07:04:15.168Z,6.60
2019-01-16T07:10:29.861Z,6.60
2019-01-16T07:15:41.754Z,6.60
2019-01-16T07:20:52.369Z,6.50
2019-01-16T07:26:05.821Z,6.50
2019-01-16T07:31:27.120Z,6.40
2019-01-16T07:36:41.579Z,6.40
2019-01-16T07:43:54.611Z,6.40
2019-01-16T07:49:13.094Z,6.40
2019-01-16T07:54:26.896Z,6.40
2019-01-16T07:59:38.360Z,6.40
2019-01-16T08:04:48.775Z,6.40
2019-01-16T08:10:04.710Z,6.40
2019-01-16T08:15:16.734Z,6.40
2019-01-16T08:20:43.225Z,6.50
2019-01-16T08:25:55.427Z,6.50
2019-01-16T08:31:09.691Z,6.40
2019-01-16T08:36:20.737Z,6.40
2019-01-16T08:41:43.522Z,6.40
2019-01-16T08:46:55.122Z,6.30
2019-01-16T08:52:05.850Z,6.30
2019-01-16T08:57:16.292Z,6.30
2019-01-16T09:02:29.876Z,6.40
2019-01-16T09:07:43.781Z,6.40
2019-01-16T09:12:54.290Z,6.40
2019-01-16T09:18:07.836Z,6.50
2019-01-16T09:23:18.802Z,6.50
2019-01-16T09:28:38.894Z,6.50
2019-01-16T09:33:52.539Z,6.50
2019-01-16T09:39:03.797Z,6.50
2019-01-16T09:46:18.642Z,6.50
2019-01-16T09:51:31.711Z,6.50
2019-01-16T09:57:02.372Z,6.50
2019-01-16T10:02:16.989Z,6.40
2019-01-16T10:07:31.382Z,6.20
2019-01-16T10:12:41.319Z,6.20
2019-01-16T10:17:58.330Z,6.10
2019-01-16T10:23:22.966Z,6.00
2019-01-16T10:28:32.632Z,6.00
2019-01-16T10:33:47.215Z,5.90
2019-01-16T10:38:59.862Z,5.90
2019-01-16T10:45:14.511Z,5.90
2019-01-16T10:50:27.967Z,5.90
2019-01-16T10:55:41.495Z,5.90
2019-01-16T11:00:54.435Z,5.90
2019-01-16T11:08:11.373Z,6.00
2019-01-16T11:13:25.107Z,6.00
2019-01-16T11:20:38.953Z,6.10
2019-01-16T11:27:56.653Z,6.10
2019-01-16T11:33:15.210Z,6.20
2019-01-16T11:38:28.421Z,6.30
2019-01-16T11:43:41.502Z,6.40
2019-01-16T11:48:58.553Z,6.50
2019-01-16T11:54:09.543Z,6.60
2019-01-16T11:59:20.312Z,6.60
2019-01-16T12:05:32.606Z,6.60
2019-01-16T12:10:43.681Z,6.70
2019-01-16T12:15:59.613Z,6.60
2019-01-16T12:21:11.457Z,6.70
2019-01-16T12:26:25.004Z,6.70
2019-01-16T12:31:41.741Z,6.80
2019-01-16T12:37:55.936Z,6.80
2019-01-16T12:43:14.368Z,6.80
2019-01-16T12:48:25.126Z,6.70
2019-01-16T12:53:35.630Z,6.70
2019-01-16T12:58:45.514Z,6.70
2019-01-16T13:03:57.829Z,6.70
2019-01-16T13:09:11.251Z,6.70
2019-01-16T13:14:29.974Z,6.70
2019-01-16T13:19:35.455Z,6.70
2019-01-16T13:24:46.364Z,6.60
2019-01-16T13:29:57.726Z,6.70
2019-01-16T13:35:08.559Z,6.70
2019-01-16T13:40:19.249Z,6.70
2019-01-16T13:45:30.239Z,6.70
2019-01-16T13:50:41.599Z,6.70
2019-01-16T13:55:52.235Z,6.70
2019-01-16T14:01:17.919Z,6.70
2019-01-16T14:06:29.436Z,6.70
2019-01-16T14:15:55.660Z,6.60
2019-01-16T14:21:07.383Z,6.60
2019-01-16T14:26:25.804Z,6.60
2019-01-16T14:31:36.632Z,6.50
2019-01-16T14:36:47.618Z,6.50
2019-01-16T14:43:03.458Z,6.50
2019-01-16T14:48:18.031Z,6.50
2019-01-16T14:53:28.591Z,6.50
2019-01-16T14:59:42.166Z,6.50
2019-01-16T15:05:23.355Z,6.50
2019-01-16T15:10:38.809Z,6.50
2019-01-16T15:16:47.338Z,6.40
2019-01-16T15:22:06.420Z,6.50
2019-01-16T15:27:13.875Z,6.40
2019-01-16T15:32:25.322Z,6.40
2019-01-16T15:37:37.188Z,6.50
2019-01-16T15:43:04.831Z,6.50
2019-01-16T15:48:15.885Z,6.50
2019-01-16T15:53:27.019Z,6.50
2019-01-16T15:58:36.530Z,6.40
2019-01-16T16:03:47.174Z,6.40
2019-01-16T16:10:59.769Z,6.40
2019-01-16T16:16:12.608Z,6.40
2019-01-16T16:21:23.523Z,6.40
2019-01-16T16:27:32.504Z,6.30
2019-01-16T16:32:43.178Z,6.30
2019-01-16T16:37:54.280Z,6.40
2019-01-16T16:43:09.832Z,6.30
2019-01-16T16:48:23.468Z,6.30
2019-01-16T16:53:33.923Z,6.30
2019-01-16T16:58:44.590Z,6.30
2019-01-16T17:03:55.609Z,6.30
2019-01-16T17:09:06.262Z,6.30
2019-01-16T17:14:19.027Z,6.20
2019-01-16T17:19:30.076Z,6.20
2019-01-16T17:25:00.579Z,6.20
2019-01-16T17:31:12.316Z,6.20
2019-01-16T17:36:23.772Z,6.20
2019-01-16T17:41:34.695Z,6.20
2019-01-16T17:47:17.536Z,6.10
2019-01-16T17:53:04.544Z,6.10
2019-01-16T17:58:14.030Z,6.10
2019-01-16T18:03:36.014Z,6.10
2019-01-16T18:08:48.544Z,6.00
2019-01-16T18:14:02.044Z,6.00
2019-01-16T18:19:11.902Z,6.00
2019-01-16T18:24:28.407Z,6.70
2019-01-16T18:29:39.154Z,6.20
2019-01-16T18:35:47.366Z,6.00
2019-01-16T18:41:00.781Z,5.90
2019-01-16T18:46:14.571Z,5.90
2019-01-16T18:51:26.890Z,5.80
2019-01-16T18:56:37.598Z,5.80
2019-01-16T19:03:55.428Z,5.80
2019-01-16T19:09:05.955Z,5.70
2019-01-16T19:14:20.678Z,5.70
2019-01-16T19:19:37.384Z,5.70
2019-01-16T19:25:45.535Z,5.60
2019-01-16T19:30:57.913Z,5.60
2019-01-16T19:36:24.531Z,5.60
2019-01-16T19:41:40.179Z,5.60
2019-01-16T19:46:51.160Z,5.50
2019-01-16T19:52:00.663Z,5.50
2019-01-16T19:59:16.276Z,5.50
2019-01-16T20:06:29.127Z,5.50
2019-01-16T20:11:40.147Z,5.40
2019-01-16T20:16:57.627Z,5.40
2019-01-16T20:22:12.923Z,5.40
2019-01-16T20:27:22.767Z,5.40
2019-01-16T20:34:40.341Z,5.30
2019-01-16T20:39:50.950Z,5.30
2019-01-16T20:45:01.859Z,5.20
2019-01-16T20:50:14.942Z,5.20
2019-01-16T20:55:29.445Z,5.10
2019-01-16T21:00:40.431Z,5.10
2019-01-16T21:05:51.171Z,5.10
2019-01-16T21:11:08.790Z,5.10
2019-01-16T21:16:32.406Z,5.10
2019-01-16T21:21:48.263Z,5.10
2019-01-16T21:26:59.237Z,5.00
2019-01-16T21:32:09.510Z,5.00
2019-01-16T21:37:30.769Z,5.00
2019-01-16T21:42:41.947Z,4.90
2019-01-16T21:48:55.587Z,4.80
2019-01-16T21:54:10.150Z,4.70
2019-01-16T21:59:21.846Z,4.50
2019-01-16T22:04:34.720Z,4.40
2019-01-16T22:09:45.419Z,4.30
2019-01-16T22:14:57.471Z,4.20
2019-01-16T22:20:14.583Z,4.10
2019-01-16T22:25:25.286Z,4.10
2019-01-16T22:30:37.779Z,4.00
2019-01-16T22:35:47.283Z,3.90
2019-01-16T22:40:58.546Z,3.80
2019-01-16T22:48:13.269Z,3.80
2019-01-16T22:53:25.980Z,3.60
2019-01-16T22:58:36.706Z,3.60
2019-01-16T23:03:51.483Z,3.50
2019-01-16T23:09:03.922Z,3.50
2019-01-16T23:14:25.603Z,3.50
2019-01-16T23:19:36.803Z,3.40
2019-01-16T23:25:50.666Z,3.40
2019-01-16T23:31:02.433Z,3.40
2019-01-16T23:36:13.895Z,3.30
2019-01-16T23:41:25.417Z,3.30
2019-01-16T23:46:36.091Z,3.30
2019-01-16T23:51:56.243Z,3.30
2019-01-16T23:57:07.843Z,3.20
